createdAt,value
2023-04-26T00:02:21.634Z,9.57
2023-04-26T00:04:52.124Z,9.11
2023-04-26T00:07:20.431Z,9.05
2023-04-26T00:09:48.202Z,9.15
2023-04-26T00:12:15.513Z,9.64
2023-04-26T00:14:43.697Z,9.62
2023-04-26T00:17:12.588Z,9.50
2023-04-26T00:19:43.166Z,9.31
2023-04-26T00:22:14.058Z,9.36
2023-04-26T00:24:42.096Z,9.66
2023-04-26T00:27:10.624Z,9.54
2023-04-26T00:29:37.709Z,9.71
2023-04-26T00:32:05.765Z,9.62
2023-04-26T00:34:37.370Z,9.50
2023-04-26T00:37:08.257Z,9.60
2023-04-26T00:39:35.699Z,9.21
2023-04-26T00:42:06.094Z,9.48
2023-04-26T00:44:40.038Z,9.22
2023-04-26T00:47:09.662Z,9.22
2023-04-26T00:49:41.713Z,9.24
2023-04-26T00:52:08.755Z,9.30
2023-04-26T00:54:36.559Z,9.14
2023-04-26T00:57:03.658Z,9.42
2023-04-26T00:59:30.860Z,9.16
2023-04-26T01:01:58.162Z,9.50
2023-04-26T01:04:28.031Z,9.41
2023-04-26T01:06:55.497Z,9.72
2023-04-26T01:09:23.014Z,9.63
2023-04-26T01:11:52.006Z,9.82
2023-04-26T01:14:19.429Z,9.33
2023-04-26T01:16:48.986Z,9.60
2023-04-26T01:19:16.731Z,9.73
2023-04-26T01:21:45.384Z,9.82
2023-04-26T01:24:13.181Z,9.59
2023-04-26T01:26:46.611Z,9.60
2023-04-26T01:29:14.856Z,9.13
2023-04-26T01:31:41.977Z,9.15
2023-04-26T01:34:09.187Z,8.97
2023-04-26T01:36:36.760Z,8.97
2023-04-26T01:39:04.520Z,9.24
2023-04-26T01:41:37.199Z,9.34
2023-04-26T01:44:04.208Z,9.56
2023-04-26T01:46:32.762Z,9.46
2023-04-26T01:49:00.324Z,9.23
2023-04-26T01:51:29.890Z,9.32
2023-04-26T01:53:56.752Z,9.21
2023-04-26T01:56:26.516Z,9.14
2023-04-26T01:58:55.523Z,9.35
2023-04-26T02:01:22.651Z,9.36
2023-04-26T02:03:51.698Z,9.35
2023-04-26T02:06:19.153Z,9.23
2023-04-26T02:08:49.055Z,9.27
2023-04-26T02:11:15.729Z,8.98
2023-04-26T02:13:44.179Z,9.30
2023-04-26T02:16:17.396Z,9.10
2023-04-26T02:18:45.555Z,9.52
2023-04-26T02:21:13.959Z,9.21
2023-04-26T02:23:41.471Z,9.64
2023-04-26T02:26:08.621Z,9.58
2023-04-26T02:28:38.420Z,9.11
2023-04-26T02:31:09.069Z,9.18
2023-04-26T02:33:41.168Z,8.82
2023-04-26T02:36:11.011Z,9.22
2023-04-26T02:38:38.001Z,9.07
2023-04-26T02:41:05.410Z,9.34
2023-04-26T02:43:32.534Z,9.07
2023-04-26T02:46:01.055Z,9.42
2023-04-26T02:48:31.797Z,9.35
2023-04-26T02:50:59.166Z,9.15
2023-04-26T02:53:31.123Z,9.16
2023-04-26T02:56:00.937Z,8.94
2023-04-26T02:58:27.617Z,8.87
2023-04-26T03:00:54.787Z,9.13
2023-04-26T03:03:22.989Z,8.82
2023-04-26T03:05:51.124Z,9.10
2023-04-26T03:08:18.177Z,8.86
2023-04-26T03:10:46.453Z,9.13
2023-04-26T03:13:13.747Z,9.17
2023-04-26T03:15:50.697Z,9.33
2023-04-26T03:18:23.611Z,9.45
2023-04-26T03:20:55.547Z,9.29
2023-04-26T03:23:30.537Z,9.22
2023-04-26T03:26:00.356Z,9.46
2023-04-26T03:28:31.813Z,9.34
2023-04-26T03:31:04.349Z,8.83
2023-04-26T03:33:40.409Z,8.95
2023-04-26T03:36:10.551Z,9.33
2023-04-26T03:38:40.846Z,9.21
2023-04-26T03:41:07.856Z,9.22
2023-04-26T03:43:35.141Z,9.01
2023-04-26T03:46:06.483Z,8.50
2023-04-26T03:48:38.959Z,8.67
2023-04-26T03:51:11.833Z,8.72
2023-04-26T03:53:39.713Z,8.99
2023-04-26T03:56:07.659Z,9.06
2023-04-26T03:58:39.646Z,9.76
2023-04-26T04:01:08.856Z,9.46
2023-04-26T04:03:39.218Z,9.27
2023-04-26T04:06:08.082Z,9.23
2023-04-26T04:08:35.072Z,9.69
2023-04-26T04:11:02.084Z,9.26
2023-04-26T04:13:28.659Z,9.47
2023-04-26T04:15:55.542Z,9.81
2023-04-26T04:18:22.205Z,9.31
2023-04-26T04:20:50.556Z,8.89
2023-04-26T04:23:18.893Z,8.32
2023-04-26T04:25:48.837Z,9.13
2023-04-26T04:28:15.875Z,9.03
2023-04-26T04:30:45.597Z,9.43
2023-04-26T04:33:17.215Z,9.35
2023-04-26T04:35:46.312Z,9.62
2023-04-26T04:38:17.124Z,9.50
2023-04-26T04:40:45.996Z,9.61
2023-04-26T04:43:16.146Z,9.44
2023-04-26T04:45:44.773Z,9.59
2023-04-26T04:48:12.434Z,9.34
2023-04-26T04:50:39.899Z,10.04
2023-04-26T04:53:14.095Z,9.81
2023-04-26T04:55:45.684Z,10.10
2023-04-26T04:58:24.389Z,9.71
2023-04-26T05:00:54.924Z,9.89
2023-04-26T05:03:23.240Z,9.65
2023-04-26T05:05:54.662Z,9.86
2023-04-26T05:08:23.860Z,9.74
2023-04-26T05:10:54.443Z,9.34
2023-04-26T05:13:25.102Z,10.10
2023-04-26T05:15:54.483Z,10.27
2023-04-26T05:18:26.363Z,10.01
2023-04-26T05:20:59.414Z,10.57
2023-04-26T05:23:32.366Z,10.92
2023-04-26T05:26:05.474Z,11.01
2023-04-26T05:28:34.051Z,10.77
2023-04-26T05:31:02.689Z,11.27
2023-04-26T05:33:31.960Z,10.75
2023-04-26T05:35:59.743Z,11.04
2023-04-26T05:38:27.208Z,10.55
2023-04-26T05:40:54.301Z,10.46
2023-04-26T05:43:22.160Z,10.88
2023-04-26T05:45:56.826Z,10.86
2023-04-26T05:48:24.747Z,10.99
2023-04-26T05:50:53.284Z,11.55
2023-04-26T05:53:20.380Z,11.82
2023-04-26T05:55:48.895Z,11.99
2023-04-26T05:58:15.808Z,11.49
2023-04-26T06:00:46.825Z,11.79
2023-04-26T06:03:13.578Z,11.79
2023-04-26T06:05:41.678Z,12.06
2023-04-26T06:08:10.756Z,11.90
2023-04-26T06:10:45.553Z,11.50
2023-04-26T06:13:12.480Z,11.78
2023-04-26T06:15:39.854Z,10.90
2023-04-26T06:18:07.497Z,10.66
2023-04-26T06:20:34.879Z,11.08
2023-04-26T06:23:03.191Z,11.58
2023-04-26T06:25:30.330Z,11.79
2023-04-26T06:27:59.416Z,10.89
2023-04-26T06:30:27.450Z,10.95
2023-04-26T06:32:54.472Z,10.84
2023-04-26T06:35:26.132Z,10.89
2023-04-26T06:37:53.400Z,11.38
2023-04-26T06:40:21.138Z,11.47
2023-04-26T06:42:49.292Z,11.78
2023-04-26T06:45:17.231Z,12.02
2023-04-26T06:47:44.038Z,12.73
2023-04-26T06:50:11.244Z,12.63
2023-04-26T06:52:44.646Z,12.76
2023-04-26T06:55:14.422Z,12.48
2023-04-26T06:57:42.615Z,12.85
2023-04-26T07:00:15.111Z,11.78
2023-04-26T07:02:44.525Z,11.80
2023-04-26T07:05:24.411Z,11.92
2023-04-26T07:07:57.019Z,12.91
2023-04-26T07:10:24.333Z,13.77
2023-04-26T07:12:54.128Z,13.48
2023-04-26T07:15:29.818Z,12.92
2023-04-26T07:17:57.945Z,13.64
2023-04-26T07:20:27.575Z,13.32
2023-04-26T07:22:54.796Z,12.87
2023-04-26T07:25:22.251Z,13.98
2023-04-26T07:27:52.505Z,13.08
2023-04-26T07:30:34.991Z,13.59
2023-04-26T07:33:02.818Z,13.33
2023-04-26T07:35:40.839Z,13.06
2023-04-26T07:38:15.079Z,12.63
2023-04-26T07:40:46.205Z,13.96
2023-04-26T07:43:15.734Z,14.78
2023-04-26T07:45:45.115Z,14.05
2023-04-26T07:48:18.696Z,14.70
2023-04-26T07:50:49.198Z,14.64
2023-04-26T07:53:21.524Z,13.32
2023-04-26T07:55:52.079Z,13.20
2023-04-26T07:58:19.599Z,14.47
2023-04-26T08:00:56.177Z,14.81
2023-04-26T08:03:24.095Z,14.21
2023-04-26T08:05:58.057Z,15.04
2023-04-26T08:08:27.334Z,15.47
2023-04-26T08:10:54.196Z,13.60
2023-04-26T08:13:44.712Z,14.22
2023-04-26T08:16:12.226Z,15.09
2023-04-26T08:18:41.114Z,15.86
2023-04-26T08:21:10.274Z,16.12
2023-04-26T08:23:38.534Z,15.64
2023-04-26T08:26:07.923Z,16.67
2023-04-26T08:28:35.764Z,15.52
2023-04-26T08:31:03.219Z,14.68
2023-04-26T08:33:29.906Z,15.05
2023-04-26T08:36:03.959Z,14.35
2023-04-26T08:38:32.262Z,15.04
2023-04-26T08:41:02.256Z,14.03
2023-04-26T08:43:33.939Z,13.98
2023-04-26T08:46:03.009Z,14.40
2023-04-26T08:48:35.095Z,13.97
2023-04-26T08:51:03.661Z,14.77
2023-04-26T08:53:31.034Z,14.61
2023-04-26T08:56:03.357Z,16.31
2023-04-26T08:58:35.280Z,15.28
2023-04-26T09:01:03.990Z,15.28
2023-04-26T09:03:31.351Z,15.81
2023-04-26T09:06:01.124Z,15.83
2023-04-26T09:08:30.665Z,16.40
2023-04-26T09:10:58.661Z,16.91
2023-04-26T09:15:56.425Z,12.50
2023-04-26T09:18:25.502Z,12.71
2023-04-26T09:21:14.434Z,13.45
2023-04-26T09:24:04.509Z,12.95
2023-04-26T09:26:32.977Z,13.18
2023-04-26T09:29:20.343Z,12.88
2023-04-26T09:31:50.114Z,12.96
2023-04-26T09:34:20.266Z,13.68
2023-04-26T09:36:51.677Z,14.41
2023-04-26T09:39:38.400Z,14.24
2023-04-26T09:42:05.195Z,14.03
2023-04-26T09:44:32.375Z,14.46
2023-04-26T09:47:02.288Z,15.09
2023-04-26T09:49:40.637Z,14.59
2023-04-26T09:52:10.311Z,15.27
2023-04-26T09:54:41.604Z,15.74
2023-04-26T09:57:08.265Z,15.71
2023-04-26T09:59:45.629Z,15.37
2023-04-26T10:02:14.659Z,16.00
2023-04-26T10:04:42.047Z,16.18
2023-04-26T10:07:09.607Z,16.30
2023-04-26T10:09:36.513Z,16.37
2023-04-26T10:12:03.448Z,17.33
2023-04-26T10:14:31.191Z,16.01
2023-04-26T10:16:58.729Z,16.71
2023-04-26T10:19:26.555Z,16.65
2023-04-26T10:21:54.943Z,16.44
2023-04-26T10:24:28.680Z,13.89
2023-04-26T10:26:57.706Z,15.63
2023-04-26T10:29:25.790Z,14.01
2023-04-26T10:32:09.581Z,13.72
2023-04-26T10:34:37.457Z,13.33
2023-04-26T10:37:14.431Z,12.28
2023-04-26T10:39:43.194Z,11.86
2023-04-26T10:42:31.013Z,10.97
2023-04-26T10:45:02.978Z,10.66
2023-04-26T10:47:35.282Z,10.59
2023-04-26T10:50:11.528Z,10.49
2023-04-26T10:52:57.887Z,11.07
2023-04-26T10:55:44.634Z,11.43
2023-04-26T10:58:30.404Z,12.58
2023-04-26T11:01:13.589Z,12.31
2023-04-26T11:04:05.178Z,12.75
2023-04-26T11:06:54.364Z,13.69
2023-04-26T11:09:37.158Z,14.28
2023-04-26T11:12:08.091Z,14.83
2023-04-26T11:14:39.167Z,14.88
2023-04-26T11:17:11.777Z,14.06
2023-04-26T11:19:38.847Z,15.28
2023-04-26T11:22:07.958Z,15.76
2023-04-26T11:24:40.035Z,17.74
2023-04-26T11:27:10.324Z,17.06
2023-04-26T11:29:43.608Z,17.33
2023-04-26T11:32:13.135Z,17.51
2023-04-26T11:34:40.403Z,16.37
2023-04-26T11:37:07.691Z,16.10
2023-04-26T11:39:34.728Z,16.00
2023-04-26T11:42:08.604Z,14.91
2023-04-26T11:44:39.057Z,14.01
2023-04-26T11:47:06.868Z,14.56
2023-04-26T11:49:34.810Z,15.56
2023-04-26T11:52:03.199Z,14.89
2023-04-26T11:54:35.262Z,15.05
2023-04-26T11:57:13.785Z,14.79
2023-04-26T11:59:42.274Z,14.71
2023-04-26T12:02:10.191Z,16.80
2023-04-26T12:04:42.393Z,15.67
2023-04-26T12:07:09.942Z,16.63
2023-04-26T12:09:43.509Z,16.67
2023-04-26T12:12:11.603Z,16.57
2023-04-26T12:14:39.678Z,17.34
2023-04-26T12:17:08.011Z,16.41
2023-04-26T12:19:39.275Z,15.59
2023-04-26T12:22:07.251Z,15.26
2023-04-26T12:24:35.893Z,16.80
2023-04-26T12:27:09.092Z,15.95
2023-04-26T12:29:36.336Z,16.27
2023-04-26T12:32:04.644Z,15.22
2023-04-26T12:34:31.826Z,16.17
2023-04-26T12:36:58.673Z,14.09
2023-04-26T12:39:25.411Z,13.84
2023-04-26T12:41:55.374Z,13.44
2023-04-26T12:44:22.779Z,13.40
2023-04-26T12:46:50.418Z,13.52
2023-04-26T12:49:16.845Z,12.81
2023-04-26T12:51:43.466Z,13.29
2023-04-26T12:54:10.608Z,12.39
2023-04-26T12:56:45.198Z,13.11
2023-04-26T12:59:14.383Z,13.25
2023-04-26T13:01:42.185Z,11.85
2023-04-26T13:04:12.783Z,13.08
2023-04-26T13:06:39.887Z,13.61
2023-04-26T13:09:08.230Z,13.70
2023-04-26T13:11:34.979Z,13.70
2023-04-26T13:14:05.432Z,13.71
2023-04-26T13:16:37.235Z,13.38
2023-04-26T13:19:09.752Z,13.85
2023-04-26T13:21:49.960Z,14.40
2023-04-26T13:24:19.236Z,12.85
2023-04-26T13:26:45.598Z,12.50
2023-04-26T13:29:12.327Z,13.26
2023-04-26T13:31:40.028Z,13.40
2023-04-26T13:34:08.347Z,14.16
2023-04-26T13:36:35.358Z,13.13
2023-04-26T13:39:05.258Z,11.80
2023-04-26T13:41:35.658Z,12.41
2023-04-26T13:44:03.679Z,12.11
2023-04-26T13:46:31.764Z,11.73
2023-04-26T13:49:02.747Z,12.36
2023-04-26T13:51:34.175Z,11.82
2023-04-26T13:54:02.331Z,12.93
2023-04-26T13:56:29.769Z,12.53
2023-04-26T13:59:11.942Z,12.95
2023-04-26T14:02:08.199Z,13.84
2023-04-26T14:04:36.530Z,14.74
2023-04-26T14:07:03.576Z,13.39
2023-04-26T14:09:30.512Z,14.76
2023-04-26T14:12:07.847Z,14.55
2023-04-26T14:14:38.354Z,13.51
2023-04-26T14:17:05.288Z,13.59
2023-04-26T14:19:31.881Z,13.11
2023-04-26T14:21:58.506Z,13.34
2023-04-26T14:24:26.036Z,12.33
2023-04-26T14:26:53.096Z,12.54
2023-04-26T14:29:20.840Z,11.84
2023-04-26T14:31:49.200Z,12.66
2023-04-26T14:34:24.786Z,13.33
2023-04-26T14:36:52.605Z,13.42
2023-04-26T14:39:19.150Z,13.22
2023-04-26T14:41:46.502Z,13.82
2023-04-26T14:44:15.539Z,13.22
2023-04-26T14:46:42.558Z,12.84
2023-04-26T14:49:13.215Z,12.95
2023-04-26T14:51:40.033Z,12.89
2023-04-26T14:54:10.095Z,14.01
2023-04-26T14:56:38.382Z,14.19
2023-04-26T14:59:06.363Z,13.13
2023-04-26T15:01:33.227Z,13.53
2023-04-26T15:04:03.183Z,13.61
2023-04-26T15:06:34.145Z,14.15
2023-04-26T15:09:04.487Z,13.80
2023-04-26T15:11:38.929Z,13.61
2023-04-26T15:14:05.519Z,14.06
2023-04-26T15:16:32.380Z,14.87
2023-04-26T15:19:00.205Z,14.61
2023-04-26T15:21:30.963Z,14.48
2023-04-26T15:24:00.276Z,14.11
2023-04-26T15:26:29.677Z,14.20
2023-04-26T15:28:56.316Z,13.39
2023-04-26T15:31:25.912Z,13.23
2023-04-26T15:34:05.087Z,13.20
2023-04-26T15:36:34.559Z,14.04
2023-04-26T15:39:06.152Z,13.95
2023-04-26T15:41:32.565Z,14.40
2023-04-26T15:44:00.179Z,14.76
2023-04-26T15:46:28.598Z,14.46
2023-04-26T15:48:59.392Z,13.72
2023-04-26T15:51:26.764Z,14.95
2023-04-26T15:53:55.551Z,14.13
2023-04-26T15:56:26.296Z,13.19
2023-04-26T15:58:59.278Z,13.76
2023-04-26T16:01:25.947Z,13.28
2023-04-26T16:03:53.414Z,14.22
2023-04-26T16:06:21.119Z,14.28
2023-04-26T16:08:48.235Z,14.64
2023-04-26T16:11:16.118Z,14.70
2023-04-26T16:13:44.540Z,14.31
2023-04-26T16:16:19.806Z,14.21
2023-04-26T16:18:47.576Z,14.71
2023-04-26T16:21:14.391Z,12.66
2023-04-26T16:23:42.143Z,13.69
2023-04-26T16:26:09.477Z,13.81
2023-04-26T16:28:36.649Z,14.46
2023-04-26T16:31:07.548Z,13.62
2023-04-26T16:33:41.136Z,14.16
2023-04-26T16:36:09.301Z,13.32
2023-04-26T16:38:37.466Z,13.16
2023-04-26T16:41:11.592Z,12.90
2023-04-26T16:43:46.364Z,13.23
2023-04-26T16:46:21.910Z,13.27
2023-04-26T16:48:51.098Z,12.98
2023-04-26T16:51:20.666Z,13.34
2023-04-26T16:53:47.797Z,13.07
2023-04-26T16:56:17.071Z,13.49
2023-04-26T16:58:49.902Z,13.08
2023-04-26T17:01:22.747Z,12.86
2023-04-26T17:03:58.239Z,13.49
2023-04-26T17:06:43.828Z,13.79
2023-04-26T17:09:16.976Z,13.35
2023-04-26T17:11:45.586Z,13.99
2023-04-26T17:14:19.699Z,14.10
2023-04-26T17:16:56.655Z,14.80
2023-04-26T17:19:32.413Z,14.56
2023-04-26T17:22:00.784Z,14.15
2023-04-26T17:24:54.166Z,13.71
2023-04-26T17:27:22.418Z,13.05
2023-04-26T17:29:50.543Z,12.65
2023-04-26T17:32:18.780Z,12.74
2023-04-26T17:34:47.457Z,12.17
2023-04-26T17:37:15.879Z,13.23
2023-04-26T17:39:43.307Z,12.87
2023-04-26T17:42:14.376Z,13.45
2023-04-26T17:44:44.230Z,13.55
2023-04-26T17:47:11.997Z,13.28
2023-04-26T17:49:39.540Z,13.18
2023-04-26T17:52:07.157Z,12.35
2023-04-26T17:54:34.749Z,13.20
2023-04-26T17:57:05.166Z,13.03
2023-04-26T17:59:32.615Z,12.50
2023-04-26T18:02:00.172Z,11.81
2023-04-26T18:04:34.187Z,12.71
2023-04-26T18:07:04.709Z,12.47
2023-04-26T18:09:33.583Z,12.26
2023-04-26T18:12:04.012Z,11.88
2023-04-26T18:14:33.102Z,11.63
2023-04-26T18:17:01.919Z,12.33
2023-04-26T18:19:29.394Z,13.10
2023-04-26T18:21:57.383Z,12.69
2023-04-26T18:24:26.021Z,12.22
2023-04-26T18:27:00.430Z,12.52
2023-04-26T18:29:28.523Z,12.02
2023-04-26T18:31:57.630Z,12.64
2023-04-26T18:34:24.668Z,12.52
2023-04-26T18:36:51.938Z,12.78
2023-04-26T18:39:19.450Z,12.43
2023-04-26T18:41:48.657Z,12.65
2023-04-26T18:44:15.599Z,12.52
2023-04-26T18:46:46.638Z,12.73
2023-04-26T18:49:16.779Z,12.70
2023-04-26T18:51:46.247Z,12.21
2023-04-26T18:54:14.807Z,11.47
2023-04-26T18:56:41.865Z,12.29
2023-04-26T18:59:14.986Z,12.47
2023-04-26T19:01:46.409Z,12.21
2023-04-26T19:04:13.222Z,12.31
2023-04-26T19:06:44.415Z,12.24
2023-04-26T19:09:12.055Z,12.13
2023-04-26T19:11:40.481Z,12.19
2023-04-26T19:14:08.038Z,12.19
2023-04-26T19:16:35.579Z,12.13
2023-04-26T19:19:03.333Z,11.99
2023-04-26T19:21:32.375Z,11.97
2023-04-26T19:23:59.435Z,12.02
2023-04-26T19:26:26.033Z,12.02
2023-04-26T19:28:52.821Z,11.90
2023-04-26T19:31:19.510Z,11.75
2023-04-26T19:33:46.936Z,11.47
2023-04-26T19:36:13.420Z,11.40
2023-04-26T19:38:40.021Z,11.48
2023-04-26T19:41:07.970Z,11.61
2023-04-26T19:43:34.870Z,11.26
2023-04-26T19:46:10.846Z,11.40
2023-04-26T19:48:37.477Z,11.56
2023-04-26T19:51:04.042Z,11.22
2023-04-26T19:53:30.934Z,11.26
2023-04-26T19:55:57.634Z,11.33
2023-04-26T19:58:25.421Z,11.29
2023-04-26T20:00:52.302Z,11.24
2023-04-26T20:03:19.005Z,11.29
2023-04-26T20:05:45.937Z,11.38
2023-04-26T20:08:12.384Z,11.28
2023-04-26T20:10:38.870Z,11.32
2023-04-26T20:13:05.604Z,11.12
2023-04-26T20:15:37.331Z,10.92
2023-04-26T20:18:04.063Z,11.18
2023-04-26T20:20:30.995Z,11.21
2023-04-26T20:22:57.602Z,11.20
2023-04-26T20:25:24.706Z,11.17
2023-04-26T20:27:51.580Z,11.02
2023-04-26T20:30:19.036Z,11.03
2023-04-26T20:32:46.608Z,11.09
2023-04-26T20:35:14.175Z,11.15
2023-04-26T20:37:44.096Z,11.00
2023-04-26T20:40:12.670Z,10.77
2023-04-26T20:42:39.857Z,10.66
2023-04-26T20:45:07.663Z,10.97
2023-04-26T20:47:34.472Z,10.81
2023-04-26T20:50:01.158Z,10.74
2023-04-26T20:52:29.571Z,10.88
2023-04-26T20:54:59.011Z,10.97
2023-04-26T20:57:26.135Z,10.64
2023-04-26T20:59:54.051Z,10.60
2023-04-26T21:02:20.765Z,10.84
2023-04-26T21:04:48.351Z,10.70
2023-04-26T21:07:16.180Z,10.73
2023-04-26T21:09:43.280Z,10.79
2023-04-26T21:12:12.822Z,10.66
2023-04-26T21:14:40.756Z,10.44
2023-04-26T21:17:09.274Z,10.61
2023-04-26T21:19:36.062Z,10.57
2023-04-26T21:22:03.249Z,10.33
2023-04-26T21:24:31.202Z,10.30
2023-04-26T21:26:59.857Z,10.38
2023-04-26T21:29:26.592Z,10.53
2023-04-26T21:31:54.228Z,10.45
2023-04-26T21:34:22.682Z,10.58
2023-04-26T21:36:50.570Z,10.17
2023-04-26T21:39:19.750Z,10.31
2023-04-26T21:41:46.323Z,10.48
2023-04-26T21:44:13.358Z,10.52
2023-04-26T21:46:41.237Z,10.50
2023-04-26T21:49:11.210Z,10.32
2023-04-26T21:51:38.936Z,10.42
2023-04-26T21:54:08.296Z,10.64
2023-04-26T21:56:35.259Z,10.26
2023-04-26T21:59:02.640Z,10.25
2023-04-26T22:01:33.048Z,10.11
2023-04-26T22:04:01.048Z,10.33
2023-04-26T22:06:30.132Z,10.70
2023-04-26T22:08:57.108Z,10.62
2023-04-26T22:11:24.432Z,10.07
2023-04-26T22:13:51.487Z,10.40
2023-04-26T22:16:19.920Z,10.82
2023-04-26T22:18:47.079Z,10.86
2023-04-26T22:21:14.301Z,10.68
2023-04-26T22:23:41.960Z,10.62
2023-04-26T22:26:09.087Z,10.68
2023-04-26T22:28:37.038Z,10.64
2023-04-26T22:31:03.777Z,10.67
2023-04-26T22:33:31.257Z,10.63
2023-04-26T22:36:00.388Z,10.54
2023-04-26T22:38:28.245Z,10.62
2023-04-26T22:40:55.625Z,10.43
2023-04-26T22:43:23.595Z,10.48
2023-04-26T22:45:51.457Z,10.64
2023-04-26T22:48:19.020Z,10.32
2023-04-26T22:50:50.459Z,10.51
2023-04-26T22:53:17.610Z,10.41
2023-04-26T22:55:44.762Z,10.28
2023-04-26T22:58:13.286Z,10.29
2023-04-26T23:00:41.068Z,10.01
2023-04-26T23:03:08.390Z,10.14
2023-04-26T23:05:35.475Z,10.26
2023-04-26T23:08:02.669Z,10.03
2023-04-26T23:10:30.198Z,10.24
2023-04-26T23:12:57.741Z,10.11
2023-04-26T23:15:25.866Z,10.03
2023-04-26T23:17:55.199Z,9.95
2023-04-26T23:20:24.110Z,10.11
2023-04-26T23:22:51.697Z,10.06
2023-04-26T23:25:20.209Z,10.08
2023-04-26T23:27:48.826Z,9.99
2023-04-26T23:30:18.975Z,9.92
2023-04-26T23:32:48.257Z,9.96
2023-04-26T23:35:17.244Z,9.80
2023-04-26T23:37:51.787Z,9.95
2023-04-26T23:40:20.269Z,9.99
2023-04-26T23:42:46.770Z,9.95
2023-04-26T23:45:13.802Z,10.06
2023-04-26T23:47:41.802Z,10.04
2023-04-26T23:50:10.753Z,10.02
2023-04-26T23:52:37.617Z,10.04
2023-04-26T23:55:04.950Z,9.94
2023-04-26T23:57:32.752Z,10.10
